Time;durP1;ratioP1;P1;durP2;ratioP2;P2;SDS_P1;SDS_P2;PMS_P1;PMS_P2;Temp;Humidity;BMP_temperature;BMP_pressure;BME280_temperature;BME280_humidity;BME280_pressure;Samples;Min_cycle;Max_cycle;Signal;HPM_P1;HPM_P2
2022/08/05 00:02:23;;;;;;;2.95;1.27;;;;;26.70;101440.00;;;;5042411;28;20670;-77
2022/08/05 00:04:51;;;;;;;1.55;1.00;;;;;26.70;101446.00;;;;5036605;28;20227;-77
2022/08/05 00:07:18;;;;;;;2.72;1.02;;;;;26.70;101449.00;;;;5045607;28;20207;-77
2022/08/05 00:09:45;;;;;;;2.67;1.30;;;;;26.70;101446.00;;;;5039260;28;20713;-77
2022/08/05 00:12:12;;;;;;;3.08;1.15;;;;;26.70;101446.00;;;;5046418;28;20195;-77
2022/08/05 00:14:40;;;;;;;2.58;1.02;;;;;26.70;101440.00;;;;5047154;28;20202;-77
2022/08/05 00:17:08;;;;;;;1.20;1.10;;;;;26.60;101432.00;;;;5047355;28;20207;-77
2022/08/05 00:19:37;;;;;;;2.72;1.05;;;;;26.60;101436.00;;;;5046819;28;20211;-77
2022/08/05 00:22:04;;;;;;;3.15;1.08;;;;;26.60;101433.00;;;;5047089;28;20669;-77
2022/08/05 00:24:32;;;;;;;1.77;1.05;;;;;26.60;101418.00;;;;5040183;28;20234;-77
2022/08/05 00:27:00;;;;;;;4.00;1.23;;;;;26.60;101427.00;;;;5046997;28;20205;-77
2022/08/05 00:29:27;;;;;;;1.60;0.90;;;;;26.60;101435.00;;;;5046954;28;20203;-77
2022/08/05 00:31:55;;;;;;;2.78;1.20;;;;;26.60;101434.00;;;;5047525;28;20211;-77
2022/08/05 00:34:24;;;;;;;6.40;1.20;;;;;26.60;101436.00;;;;5047597;28;20242;-77
2022/08/05 00:36:51;;;;;;;2.85;1.08;;;;;26.60;101438.00;;;;5046626;28;20196;-77
2022/08/05 00:39:18;;;;;;;2.40;0.85;;;;;26.60;101443.00;;;;5046702;28;20195;-77
2022/08/05 00:41:47;;;;;;;2.67;1.10;;;;;26.60;101437.00;;;;5046222;28;20200;-78
2022/08/05 00:44:14;;;;;;;2.58;1.42;;;;;26.60;101431.00;;;;5049487;28;20220;-77
2022/08/05 00:46:42;;;;;;;1.75;1.35;;;;;26.50;101432.00;;;;5050434;28;20222;-77
2022/08/05 00:49:09;;;;;;;2.83;1.05;;;;;26.50;101437.00;;;;5050817;28;20204;-78
2022/08/05 00:51:38;;;;;;;3.72;1.10;;;;;26.50;101447.00;;;;5048265;28;20203;-77
2022/08/05 00:54:05;;;;;;;2.25;0.88;;;;;26.50;101439.00;;;;5050496;28;20203;-77
2022/08/05 00:56:32;;;;;;;5.00;1.38;;;;;26.50;101436.00;;;;5049196;28;21055;-77
2022/08/05 00:59:00;;;;;;;3.03;0.90;;;;;26.40;101440.00;;;;5034795;28;20212;-77
2022/08/05 01:01:28;;;;;;;4.03;1.30;;;;;26.40;101420.00;;;;5046190;28;20211;-77
2022/08/05 01:03:55;;;;;;;2.63;1.02;;;;;26.40;101416.00;;;;5049856;28;20273;-77
2022/08/05 01:06:22;;;;;;;2.53;1.10;;;;;26.40;101426.00;;;;5050589;28;20211;-77
2022/08/05 01:08:51;;;;;;;2.40;1.33;;;;;26.30;101433.00;;;;5050128;28;20553;-77
2022/08/05 01:11:22;;;;;;;2.88;1.27;;;;;26.30;101446.00;;;;5050118;28;20199;-77
2022/08/05 01:13:57;;;;;;;1.30;1.02;;;;;26.30;101446.00;;;;5046414;28;20204;-77
2022/08/05 01:16:30;;;;;;;2.88;0.90;;;;;26.30;101439.00;;;;5041383;28;20198;-77
2022/08/05 01:19:04;;;;;;;2.35;0.80;;;;;26.30;101443.00;;;;5050446;28;20192;-77
2022/08/05 01:22:06;;;;;;;2.22;0.95;;;;;26.20;101433.00;;;;5050383;28;20206;-77
2022/08/05 01:25:02;;;;;;;2.25;1.00;;;;;26.20;101441.00;;;;5030544;28;20231;-77
2022/08/05 01:28:08;;;;;;;4.10;0.85;;;;;26.10;101443.00;;;;5042071;28;20211;-77
2022/08/05 01:30:38;;;;;;;3.60;1.17;;;;;26.20;101452.00;;;;5005944;28;20581;-77
2022/08/05 01:33:09;;;;;;;4.60;0.90;;;;;26.20;101461.00;;;;5039180;28;20196;-77
2022/08/05 01:35:39;;;;;;;4.93;1.05;;;;;26.20;101451.00;;;;5050609;28;20207;-77
2022/08/05 01:38:08;;;;;;;1.98;1.00;;;;;26.20;101454.00;;;;5049830;28;20206;-77
2022/08/05 01:40:37;;;;;;;1.63;1.20;;;;;26.20;101454.00;;;;5048825;28;20609;-77
2022/08/05 01:43:06;;;;;;;2.35;1.27;;;;;26.20;101461.00;;;;5050252;28;20199;-77
2022/08/05 01:45:35;;;;;;;1.40;1.00;;;;;26.20;101464.00;;;;5049903;28;20234;-77
2022/08/05 01:48:03;;;;;;;3.95;1.20;;;;;26.20;101464.00;;;;5044398;28;20192;-77
2022/08/05 01:50:35;;;;;;;2.15;1.00;;;;;26.20;101485.00;;;;5043720;28;20210;-77
2022/08/05 01:53:06;;;;;;;3.42;1.35;;;;;26.20;101484.00;;;;5049703;28;20654;-77
2022/08/05 01:55:34;;;;;;;4.65;1.52;;;;;26.20;101472.00;;;;5049687;28;20673;-77
2022/08/05 01:58:07;;;;;;;1.50;1.10;;;;;26.20;101467.00;;;;5049605;28;20231;-77
2022/08/05 02:00:37;;;;;;;4.68;1.00;;;;;26.10;101466.00;;;;5049511;28;20211;-77
2022/08/05 02:03:09;;;;;;;1.75;1.05;;;;;26.10;101454.00;;;;5048996;28;20214;-77
2022/08/05 02:05:38;;;;;;;2.35;1.00;;;;;26.10;101461.00;;;;5039911;28;20239;-77
2022/08/05 02:08:06;;;;;;;3.40;0.98;;;;;26.10;101456.00;;;;5039049;28;20206;-77
2022/08/05 02:10:40;;;;;;;5.70;1.15;;;;;26.10;101454.00;;;;5049121;28;20775;-77
2022/08/05 02:13:14;;;;;;;4.45;1.10;;;;;26.10;101449.00;;;;5049129;28;20199;-77
2022/08/05 02:15:47;;;;;;;1.13;0.60;;;;;26.10;101454.00;;;;5049638;28;20226;-77
2022/08/05 02:18:20;;;;;;;1.10;0.75;;;;;26.10;101461.00;;;;5048868;28;20203;-77
2022/08/05 02:20:53;;;;;;;2.38;0.95;;;;;26.10;101466.00;;;;5042005;28;20187;-77
2022/08/05 02:23:26;;;;;;;3.17;0.93;;;;;26.10;101452.00;;;;5044891;28;20204;-77
2022/08/05 02:25:53;;;;;;;1.48;0.70;;;;;26.10;101449.00;;;;5050031;28;20231;-78
2022/08/05 02:28:26;;;;;;;0.80;0.63;;;;;26.00;101466.00;;;;5049478;28;20216;-78
2022/08/05 02:30:57;;;;;;;2.35;0.95;;;;;26.00;101439.00;;;;5049760;28;20192;-78
2022/08/05 02:33:25;;;;;;;1.52;0.85;;;;;26.00;101442.00;;;;5049128;28;20204;-78
2022/08/05 02:35:56;;;;;;;1.80;1.00;;;;;26.00;101444.00;;;;5048802;28;20285;-78
2022/08/05 02:38:24;;;;;;;2.75;1.38;;;;;26.00;101443.00;;;;5048124;28;20196;-78
2022/08/05 02:40:54;;;;;;;1.90;0.80;;;;;26.00;101443.00;;;;5048447;28;20221;-78
2022/08/05 02:43:24;;;;;;;4.88;1.08;;;;;26.00;101441.00;;;;5048381;28;20204;-78
2022/08/05 02:45:52;;;;;;;2.13;1.02;;;;;26.00;101442.00;;;;5047953;28;20226;-78
2022/08/05 02:48:21;;;;;;;3.08;1.00;;;;;25.90;101439.00;;;;5048014;28;20223;-78
2022/08/05 02:50:50;;;;;;;3.17;0.80;;;;;25.90;101442.00;;;;5046369;28;20661;-78
2022/08/05 02:53:19;;;;;;;4.32;0.85;;;;;25.90;101442.00;;;;5048729;28;20253;-78
2022/08/05 02:55:48;;;;;;;2.38;0.65;;;;;25.90;101443.00;;;;5044994;28;20203;-77
2022/08/05 02:58:16;;;;;;;1.10;0.57;;;;;25.90;101437.00;;;;5039504;28;20226;-78
2022/08/05 03:00:46;;;;;;;2.47;0.85;;;;;25.80;101430.00;;;;5049225;28;20227;-78
2022/08/05 03:03:16;;;;;;;1.42;0.80;;;;;25.80;101426.00;;;;5047367;28;20207;-78
2022/08/05 03:05:44;;;;;;;3.30;0.77;;;;;25.80;101441.00;;;;5049007;28;20220;-78
2022/08/05 03:08:12;;;;;;;1.73;0.70;;;;;25.80;101442.00;;;;5049305;28;20827;-78
2022/08/05 03:10:41;;;;;;;4.05;1.33;;;;;25.80;101440.00;;;;5048367;28;20214;-77
2022/08/05 03:13:13;;;;;;;1.63;0.80;;;;;25.70;101445.00;;;;5047743;28;20210;-78
2022/08/05 03:15:44;;;;;;;1.38;0.77;;;;;25.70;101451.00;;;;5048533;28;20281;-78
2022/08/05 03:18:11;;;;;;;2.53;1.13;;;;;25.70;101458.00;;;;5048081;28;20629;-77
2022/08/05 03:20:39;;;;;;;2.50;0.90;;;;;25.70;101457.00;;;;5048512;28;20207;-77
2022/08/05 03:23:08;;;;;;;1.48;0.77;;;;;25.70;101460.00;;;;5048015;28;20200;-77
2022/08/05 03:25:37;;;;;;;2.65;1.17;;;;;25.70;101455.00;;;;5047753;28;20231;-77
2022/08/05 03:28:06;;;;;;;2.80;1.05;;;;;25.70;101448.00;;;;5048886;28;20514;-77
2022/08/05 03:30:34;;;;;;;9.70;0.98;;;;;25.70;101449.00;;;;5041662;28;20236;-78
2022/08/05 03:33:04;;;;;;;1.67;0.73;;;;;25.60;101451.00;;;;5047988;28;20196;-78
2022/08/05 03:35:32;;;;;;;3.35;1.25;;;;;25.60;101448.00;;;;5047664;28;20202;-77
2022/08/05 03:38:00;;;;;;;1.15;0.82;;;;;25.60;101448.00;;;;5047099;28;20645;-78
2022/08/05 03:40:28;;;;;;;1.08;0.75;;;;;25.60;101443.00;;;;5046992;28;20723;-77
2022/08/05 03:42:55;;;;;;;2.75;0.80;;;;;25.60;101446.00;;;;5046478;28;20640;-78
2022/08/05 03:45:22;;;;;;;2.80;1.15;;;;;25.60;101448.00;;;;5048051;28;20231;-78
2022/08/05 03:47:50;;;;;;;3.80;0.98;;;;;25.60;101448.00;;;;5043491;28;20641;-78
2022/08/05 03:50:19;;;;;;;3.55;0.70;;;;;25.50;101448.00;;;;5048196;28;20566;-78
2022/08/05 03:52:55;;;;;;;2.22;0.88;;;;;25.50;101452.00;;;;5047327;28;20214;-78
2022/08/05 03:55:26;;;;;;;2.08;1.25;;;;;25.50;101460.00;;;;5048178;28;20203;-78
2022/08/05 03:57:55;;;;;;;0.90;0.68;;;;;25.50;101459.00;;;;5047638;28;20223;-78
2022/08/05 04:00:28;;;;;;;1.38;0.70;;;;;25.50;101457.00;;;;5047900;28;20219;-78
2022/08/05 04:02:58;;;;;;;3.08;0.80;;;;;25.50;101454.00;;;;5047390;28;20261;-78
2022/08/05 04:05:27;;;;;;;2.25;1.08;;;;;25.50;101452.00;;;;5030959;28;20220;-78
2022/08/05 04:07:55;;;;;;;3.17;1.05;;;;;25.50;101448.00;;;;5037612;28;20199;-78
2022/08/05 04:10:22;;;;;;;2.05;0.80;;;;;25.40;101453.00;;;;5047289;28;20204;-78
2022/08/05 04:12:49;;;;;;;2.90;0.98;;;;;25.40;101447.00;;;;5047106;28;20295;-78
2022/08/05 04:15:18;;;;;;;1.63;0.70;;;;;25.40;101448.00;;;;5047775;28;20203;-78
2022/08/05 04:17:45;;;;;;;2.75;1.35;;;;;25.40;101457.00;;;;5036485;28;20210;-78
2022/08/05 04:20:19;;;;;;;5.70;1.25;;;;;25.30;101470.00;;;;5050528;28;20192;-78
2022/08/05 04:22:48;;;;;;;2.78;1.05;;;;;25.30;101460.00;;;;5050446;28;20657;-78
2022/08/05 04:25:16;;;;;;;4.38;1.38;;;;;25.30;101463.00;;;;5033929;28;20623;-78
2022/08/05 04:27:43;;;;;;;3.95;1.10;;;;;25.30;101465.00;;;;5051764;28;20191;-78
2022/08/05 04:30:11;;;;;;;2.60;0.93;;;;;25.30;101464.00;;;;5051628;28;20685;-79
2022/08/05 04:32:38;;;;;;;3.28;1.13;;;;;25.20;101465.00;;;;5051373;28;20203;-78
2022/08/05 04:35:07;;;;;;;2.97;1.05;;;;;25.20;101467.00;;;;5051666;28;20199;-78
2022/08/05 04:37:34;;;;;;;2.65;1.05;;;;;25.20;101470.00;;;;5049938;28;21019;-78
2022/08/05 04:40:03;;;;;;;2.30;1.00;;;;;25.20;101462.00;;;;5032167;28;20694;-78
2022/08/05 04:42:30;;;;;;;5.70;1.42;;;;;25.20;101473.00;;;;5049920;28;20199;-78
2022/08/05 04:44:57;;;;;;;2.67;1.20;;;;;25.20;101462.00;;;;5051886;28;20596;-78
2022/08/05 04:47:25;;;;;;;4.72;1.15;;;;;25.20;101453.00;;;;5051238;28;20195;-78
2022/08/05 04:49:52;;;;;;;1.25;0.88;;;;;25.10;101463.00;;;;5051970;28;20194;-78
2022/08/05 04:52:19;;;;;;;2.92;1.10;;;;;25.10;101466.00;;;;5050107;28;20196;-78
2022/08/05 04:54:46;;;;;;;3.80;0.93;;;;;25.10;101471.00;;;;5048714;28;20210;-78
2022/08/05 04:57:15;;;;;;;1.55;1.00;;;;;25.10;101470.00;;;;5050340;28;20223;-78
2022/08/05 04:59:42;;;;;;;1.40;1.30;;;;;25.10;101463.00;;;;5051461;28;20206;-78
2022/08/05 05:02:09;;;;;;;2.65;0.77;;;;;25.10;101462.00;;;;5050435;28;20203;-78
2022/08/05 05:04:37;;;;;;;2.42;1.08;;;;;25.10;101467.00;;;;5051284;28;20207;-78
2022/08/05 05:07:04;;;;;;;1.25;0.90;;;;;25.10;101469.00;;;;5050846;28;20234;-78
2022/08/05 05:09:31;;;;;;;2.08;1.30;;;;;25.10;101479.00;;;;5036410;28;20196;-78
2022/08/05 05:12:00;;;;;;;2.40;1.00;;;;;25.10;101479.00;;;;5043467;28;20204;-78
2022/08/05 05:14:29;;;;;;;1.75;1.10;;;;;25.10;101479.00;;;;5046751;28;20208;-78
2022/08/05 05:16:56;;;;;;;1.58;0.90;;;;;25.10;101475.00;;;;5050706;28;20222;-78
2022/08/05 05:19:23;;;;;;;1.55;1.10;;;;;25.10;101476.00;;;;5031618;28;20200;-78
2022/08/05 05:21:50;;;;;;;4.85;1.50;;;;;25.00;101472.00;;;;5044324;28;20200;-78
2022/08/05 05:24:20;;;;;;;3.72;1.00;;;;;25.00;101478.00;;;;5050988;28;20196;-78
2022/08/05 05:26:47;;;;;;;2.42;1.30;;;;;25.10;101483.00;;;;5049935;28;20767;-78
2022/08/05 05:29:14;;;;;;;3.22;1.42;;;;;25.10;101479.00;;;;5047125;28;20199;-78
2022/08/05 05:31:43;;;;;;;4.68;1.00;;;;;25.10;101478.00;;;;5051227;28;20199;-78
2022/08/05 05:34:10;;;;;;;2.72;1.00;;;;;25.10;101469.00;;;;5051119;28;20692;-78
2022/08/05 05:36:38;;;;;;;2.83;1.00;;;;;25.10;101476.00;;;;5049664;28;20196;-78
2022/08/05 05:39:05;;;;;;;6.13;1.25;;;;;25.10;101478.00;;;;5049689;28;20553;-78
2022/08/05 05:41:32;;;;;;;1.63;1.35;;;;;25.10;101474.00;;;;5041284;28;20196;-78
2022/08/05 05:44:00;;;;;;;4.75;1.10;;;;;25.10;101475.00;;;;5050102;28;20200;-78
2022/08/05 05:46:27;;;;;;;2.63;1.20;;;;;25.10;101479.00;;;;5048433;28;20223;-79
2022/08/05 05:48:56;;;;;;;3.88;1.02;;;;;25.10;101477.00;;;;5050099;28;20705;-78
2022/08/05 05:51:24;;;;;;;1.83;0.90;;;;;25.10;101484.00;;;;5049370;28;20210;-78
2022/08/05 05:53:53;;;;;;;1.50;1.05;;;;;25.10;101485.00;;;;5049962;28;20196;-78
2022/08/05 05:56:21;;;;;;;2.45;0.88;;;;;25.10;101494.00;;;;5049189;28;20725;-78
2022/08/05 05:58:48;;;;;;;2.25;0.80;;;;;25.10;101486.00;;;;5050012;28;20310;-78
2022/08/05 06:01:16;;;;;;;1.55;1.20;;;;;25.20;101495.00;;;;5048860;28;20220;-78
2022/08/05 06:03:43;;;;;;;0.85;0.73;;;;;25.20;101499.00;;;;5044872;28;20191;-78
2022/08/05 06:06:11;;;;;;;10.57;1.35;;;;;25.20;101497.00;;;;5048984;28;20212;-78
2022/08/05 06:08:39;;;;;;;2.83;1.08;;;;;25.30;101505.00;;;;5049150;28;20204;-78
2022/08/05 06:11:06;;;;;;;2.45;0.95;;;;;25.30;101493.00;;;;5048982;28;20695;-78
2022/08/05 06:13:35;;;;;;;2.25;1.15;;;;;25.30;101492.00;;;;5049648;28;20203;-78
2022/08/05 06:16:02;;;;;;;1.83;1.00;;;;;25.40;101499.00;;;;5050031;28;20204;-78
2022/08/05 06:18:29;;;;;;;1.98;1.27;;;;;25.50;101502.00;;;;5049257;28;20199;-78
2022/08/05 06:20:57;;;;;;;1.20;0.90;;;;;25.50;101499.00;;;;5043194;28;20192;-78
2022/08/05 06:23:25;;;;;;;4.07;1.10;;;;;25.60;101502.00;;;;5038192;28;20200;-78
2022/08/05 06:25:53;;;;;;;2.00;0.90;;;;;25.70;101507.00;;;;5039202;28;20627;-78
2022/08/05 06:28:20;;;;;;;1.27;1.08;;;;;25.70;101508.00;;;;5048774;28;20215;-78
2022/08/05 06:30:47;;;;;;;1.95;0.93;;;;;25.80;101503.00;;;;5048704;28;20200;-79
2022/08/05 06:33:14;;;;;;;3.10;0.95;;;;;25.90;101505.00;;;;5049570;28;20196;-78
2022/08/05 06:35:42;;;;;;;2.30;0.80;;;;;25.90;101510.00;;;;5049059;28;20717;-79
2022/08/05 06:38:09;;;;;;;1.75;0.85;;;;;26.00;101511.00;;;;5045214;28;20204;-78
2022/08/05 06:40:37;;;;;;;2.22;0.82;;;;;26.00;101511.00;;;;5048378;28;20678;-79
2022/08/05 06:43:05;;;;;;;0.95;0.70;;;;;26.00;101512.00;;;;5043241;28;20203;-79
2022/08/05 06:45:32;;;;;;;1.20;0.60;;;;;26.10;101513.00;;;;5049326;28;20200;-79
2022/08/05 06:48:00;;;;;;;0.60;0.50;;;;;26.10;101513.00;;;;5049825;28;20200;-78
2022/08/05 06:50:27;;;;;;;1.55;0.60;;;;;26.10;101514.00;;;;5048274;28;20569;-78
2022/08/05 06:52:54;;;;;;;0.60;0.60;;;;;26.10;101518.00;;;;5048343;28;20211;-79
2022/08/05 06:55:21;;;;;;;2.15;0.63;;;;;26.20;101516.00;;;;5037674;28;20567;-79
2022/08/05 06:57:50;;;;;;;1.15;0.60;;;;;26.20;101524.00;;;;5047908;28;20228;-78
2022/08/05 07:00:18;;;;;;;1.33;0.57;;;;;26.20;101525.00;;;;5047991;28;20211;-79
2022/08/05 07:02:46;;;;;;;1.52;0.73;;;;;26.30;101535.00;;;;5047949;28;20207;-78
2022/08/05 07:05:14;;;;;;;2.08;0.47;;;;;26.30;101535.00;;;;5049232;28;20192;-78
2022/08/05 07:07:42;;;;;;;1.75;0.60;;;;;26.30;101541.00;;;;5037288;28;20228;-78
2022/08/05 07:10:10;;;;;;;1.08;0.77;;;;;26.30;101542.00;;;;5048396;28;20203;-78
2022/08/05 07:18:08;;;;;;;0.82;0.70;;;;;26.30;101571.00;;;;5046934;28;20215;-78
2022/08/05 07:20:36;;;;;;;2.10;0.57;;;;;26.30;101556.00;;;;5030025;28;20204;-78
2022/08/05 07:23:03;;;;;;;0.60;0.47;;;;;26.30;101564.00;;;;5044451;28;20685;-78
2022/08/05 07:25:30;;;;;;;2.35;0.30;;;;;26.30;101567.00;;;;5043464;28;20200;-76
2022/08/05 07:27:57;;;;;;;1.88;0.52;;;;;26.40;101571.00;;;;5029095;28;20216;-77
2022/08/05 07:30:26;;;;;;;0.82;0.40;;;;;26.40;101571.00;;;;5045478;28;20744;-77
2022/08/05 07:32:53;;;;;;;1.25;0.60;;;;;26.50;101575.00;;;;5048064;28;20211;-76
2022/08/05 07:35:20;;;;;;;1.38;0.82;;;;;26.50;101584.00;;;;5047383;28;20200;-76
2022/08/05 07:37:48;;;;;;;0.77;0.60;;;;;26.50;101579.00;;;;5046975;28;20203;-77
2022/08/05 07:40:15;;;;;;;1.13;0.50;;;;;26.60;101583.00;;;;5048111;28;20199;-76
2022/08/05 07:42:42;;;;;;;1.02;0.50;;;;;26.70;101589.00;;;;5047516;28;20226;-77
2022/08/05 07:45:10;;;;;;;0.50;0.20;;;;;26.70;101585.00;;;;5041308;28;20201;-77
2022/08/05 07:47:39;;;;;;;1.13;0.50;;;;;26.80;101589.00;;;;5031027;28;20590;-77
2022/08/05 07:50:07;;;;;;;2.03;0.68;;;;;26.90;101587.00;;;;5047126;28;20200;-77
2022/08/05 07:52:38;;;;;;;2.28;0.50;;;;;27.00;101592.00;;;;5047126;28;20204;-77
2022/08/05 07:55:06;;;;;;;0.93;0.43;;;;;27.10;101590.00;;;;5047551;28;20250;-77
2022/08/05 07:57:34;;;;;;;0.57;0.35;;;;;27.20;101591.00;;;;5047588;28;20238;-77
2022/08/05 08:00:01;;;;;;;2.67;0.50;;;;;27.30;101587.00;;;;5046855;28;20250;-77
2022/08/05 08:02:29;;;;;;;0.63;0.25;;;;;27.40;101595.00;;;;5041603;28;20196;-77
2022/08/05 08:04:59;;;;;;;3.25;0.40;;;;;27.50;101604.00;;;;5045722;28;20210;-77
2022/08/05 08:07:27;;;;;;;2.85;0.50;;;;;27.60;101607.00;;;;5044283;28;20752;-77
2022/08/05 08:09:54;;;;;;;0.32;0.28;;;;;27.80;101613.00;;;;5047963;28;20210;-77
2022/08/05 08:12:22;;;;;;;0.32;0.20;;;;;27.90;101615.00;;;;5047126;28;20206;-77
2022/08/05 08:14:50;;;;;;;0.70;0.30;;;;;28.00;101617.00;;;;5047003;28;20191;-77
2022/08/05 08:17:17;;;;;;;0.88;0.40;;;;;28.00;101618.00;;;;5047206;28;20202;-77
2022/08/05 08:19:45;;;;;;;0.40;0.10;;;;;28.10;101625.00;;;;5038442;28;20235;-77
2022/08/05 08:22:14;;;;;;;0.85;0.40;;;;;28.20;101616.00;;;;5031393;28;20192;-76
2022/08/05 08:24:41;;;;;;;0.43;0.32;;;;;28.20;101621.00;;;;5047643;28;20669;-77
2022/08/05 08:27:08;;;;;;;0.85;0.20;;;;;28.30;101623.00;;;;5046775;28;20215;-77
2022/08/05 08:29:36;;;;;;;0.45;0.20;;;;;28.40;101618.00;;;;5046806;28;20203;-77
2022/08/05 08:32:03;;;;;;;0.30;0.20;;;;;28.50;101623.00;;;;5046319;28;20206;-77
2022/08/05 08:34:30;;;;;;;0.55;0.30;;;;;28.60;101628.00;;;;5047437;28;20203;-77
2022/08/05 08:36:58;;;;;;;0.55;0.25;;;;;28.70;101626.00;;;;5044863;28;20204;-77
2022/08/05 08:39:26;;;;;;;1.20;0.20;;;;;28.70;101636.00;;;;5046848;28;20198;-77
2022/08/05 08:41:55;;;;;;;1.13;0.20;;;;;28.80;101639.00;;;;5047447;28;20206;-77
2022/08/05 08:44:25;;;;;;;0.70;0.30;;;;;28.80;101637.00;;;;5046868;28;20548;-77
2022/08/05 08:46:52;;;;;;;0.60;0.20;;;;;28.90;101640.00;;;;5047066;28;20227;-77
2022/08/05 08:49:23;;;;;;;0.50;0.38;;;;;29.00;101647.00;;;;5046652;28;20306;-77
2022/08/05 08:51:58;;;;;;;0.40;0.30;;;;;29.00;101644.00;;;;5048263;28;20207;-77
2022/08/05 08:54:27;;;;;;;0.50;0.32;;;;;29.00;101646.00;;;;5033360;28;20199;-77
2022/08/05 08:56:55;;;;;;;0.30;0.30;;;;;29.00;101649.00;;;;5047432;28;20227;-77
2022/08/05 08:59:23;;;;;;;0.75;0.20;;;;;29.00;101650.00;;;;5048239;28;20208;-78
2022/08/05 09:01:51;;;;;;;2.28;0.60;;;;;29.00;101656.00;;;;5047458;28;20212;-79
2022/08/05 09:04:20;;;;;;;0.30;0.30;;;;;29.00;101665.00;;;;5051105;28;20444;-78
2022/08/05 09:06:47;;;;;;;0.88;0.30;;;;;29.10;101661.00;;;;5050215;28;20226;-77
2022/08/05 09:09:15;;;;;;;0.65;0.30;;;;;29.10;101668.00;;;;5051744;28;20211;-78
2022/08/05 09:11:43;;;;;;;0.43;0.20;;;;;29.20;101675.00;;;;5045456;28;20200;-78
2022/08/05 09:14:12;;;;;;;0.30;0.20;;;;;29.20;101674.00;;;;5050991;28;20669;-77
2022/08/05 09:16:39;;;;;;;0.50;0.25;;;;;29.30;101677.00;;;;5050512;28;20261;-78
2022/08/05 09:19:08;;;;;;;0.73;0.40;;;;;29.40;101677.00;;;;5051114;28;20196;-78
2022/08/05 09:21:36;;;;;;;0.95;0.20;;;;;29.50;101671.00;;;;5051056;28;20192;-78
2022/08/05 09:24:05;;;;;;;0.43;0.30;;;;;29.60;101673.00;;;;5050101;28;20191;-77
2022/08/05 09:26:32;;;;;;;1.52;0.50;;;;;29.70;101673.00;;;;5049557;28;20195;-77
2022/08/05 09:29:03;;;;;;;0.68;0.30;;;;;29.80;101675.00;;;;5038841;28;20219;-77
2022/08/05 09:31:32;;;;;;;0.52;0.20;;;;;29.90;101684.00;;;;5050202;28;20219;-78
2022/08/05 09:34:01;;;;;;;0.52;0.30;;;;;29.90;101684.00;;;;5050048;28;20570;-79
2022/08/05 09:36:44;;;;;;;0.50;0.30;;;;;29.80;101695.00;;;;5050443;28;20279;-78
2022/08/05 09:39:13;;;;;;;1.10;0.40;;;;;29.80;101695.00;;;;5049367;28;20279;-78
2022/08/05 09:41:56;;;;;;;2.00;0.45;;;;;29.60;101709.00;;;;5050235;28;20199;-78
2022/08/05 09:44:39;;;;;;;0.22;0.20;;;;;29.40;101711.00;;;;5041705;28;20200;-78
2022/08/05 09:47:11;;;;;;;1.15;0.32;;;;;29.40;101713.00;;;;5032237;28;20410;-78
2022/08/05 09:49:46;;;;;;;1.10;0.30;;;;;29.30;101715.00;;;;5049412;28;20199;-78
2022/08/05 09:52:23;;;;;;;1.10;0.35;;;;;29.20;101718.00;;;;5049704;28;20202;-78
2022/08/05 09:54:58;;;;;;;2.28;0.30;;;;;29.20;101717.00;;;;5050003;28;20202;-78
2022/08/05 09:57:34;;;;;;;0.28;0.20;;;;;29.10;101716.00;;;;5049466;28;20258;-77
2022/08/05 10:00:08;;;;;;;1.85;0.15;;;;;29.00;101719.00;;;;5049538;28;20246;-77
2022/08/05 10:02:38;;;;;;;0.47;0.30;;;;;29.00;101720.00;;;;5046604;28;20199;-77
2022/08/05 10:05:08;;;;;;;1.17;0.35;;;;;29.00;101725.00;;;;5048912;28;20191;-77
2022/08/05 10:07:47;;;;;;;0.93;0.20;;;;;29.00;101723.00;;;;5049337;28;20639;-78
2022/08/05 10:10:15;;;;;;;0.80;0.50;;;;;29.00;101737.00;;;;5049800;28;20206;-77
2022/08/05 10:12:44;;;;;;;0.40;0.30;;;;;29.00;101729.00;;;;5049178;28;20207;-77
2022/08/05 10:15:21;;;;;;;0.88;0.30;;;;;28.90;101724.00;;;;5049385;28;20188;-77
2022/08/05 10:18:04;;;;;;;0.52;0.25;;;;;28.80;101726.00;;;;5046591;28;20200;-77
2022/08/05 10:20:33;;;;;;;1.77;0.20;;;;;28.90;101727.00;;;;5046309;28;20561;-77
2022/08/05 10:23:01;;;;;;;0.50;0.20;;;;;28.90;101736.00;;;;5049549;28;20208;-77
2022/08/05 10:25:29;;;;;;;0.22;0.20;;;;;29.00;101733.00;;;;5049966;28;20211;-77
2022/08/05 10:27:57;;;;;;;0.20;0.20;;;;;29.00;101738.00;;;;5049004;28;20215;-77
2022/08/05 10:30:25;;;;;;;1.45;0.45;;;;;29.00;101740.00;;;;5049297;28;20207;-77
2022/08/05 10:32:54;;;;;;;0.40;0.20;;;;;29.00;101747.00;;;;5049086;28;20203;-77
2022/08/05 10:35:21;;;;;;;1.65;0.30;;;;;29.00;101754.00;;;;5043625;28;20219;-77
2022/08/05 10:37:49;;;;;;;0.65;0.30;;;;;28.90;101765.00;;;;5049040;28;20191;-77
2022/08/05 10:40:24;;;;;;;1.10;0.50;;;;;28.80;101761.00;;;;5049309;28;20203;-77
2022/08/05 10:42:53;;;;;;;0.60;0.40;;;;;28.80;101755.00;;;;5049167;28;20230;-77
2022/08/05 10:45:29;;;;;;;0.65;0.20;;;;;28.80;101757.00;;;;5048739;28;20203;-78
2022/08/05 10:47:56;;;;;;;2.75;0.60;;;;;28.80;101755.00;;;;5049550;28;20293;-78
2022/08/05 10:50:24;;;;;;;0.38;0.28;;;;;28.80;101766.00;;;;5048804;28;20192;-77
2022/08/05 10:52:55;;;;;;;0.90;0.40;;;;;28.80;101764.00;;;;5041481;28;20290;-77
2022/08/05 10:55:23;;;;;;;0.20;0.20;;;;;28.80;101784.00;;;;5048419;28;20199;-78
2022/08/05 10:58:08;;;;;;;0.30;0.25;;;;;28.70;101777.00;;;;5047987;28;20223;-77
2022/08/05 11:00:46;;;;;;;1.48;0.28;;;;;28.70;101783.00;;;;5047973;28;20215;-77
2022/08/05 11:03:14;;;;;;;0.55;0.32;;;;;28.70;101783.00;;;;5048344;28;20198;-77
2022/08/05 11:05:41;;;;;;;1.10;0.20;;;;;28.70;101792.00;;;;5047855;28;20661;-78
2022/08/05 11:08:10;;;;;;;0.38;0.38;;;;;28.60;101787.00;;;;5048230;28;20220;-78
2022/08/05 11:10:40;;;;;;;1.15;0.40;;;;;28.60;101800.00;;;;5041529;28;20219;-78
2022/08/05 11:13:08;;;;;;;1.58;0.75;;;;;28.60;101799.00;;;;5048488;28;20199;-78
2022/08/05 11:15:39;;;;;;;0.20;0.20;;;;;28.50;101804.00;;;;5048016;28;20677;-78
2022/08/05 11:18:23;;;;;;;1.77;0.15;;;;;28.50;101804.00;;;;5048364;28;20216;-78
2022/08/05 11:20:50;;;;;;;0.22;0.10;;;;;28.50;101799.00;;;;5047906;28;20226;-78
2022/08/05 11:23:36;;;;;;;0.90;0.20;;;;;28.40;101800.00;;;;5048295;28;20625;-78
2022/08/05 11:26:08;;;;;;;0.98;0.28;;;;;28.50;101807.00;;;;5047672;28;20235;-77
2022/08/05 11:28:54;;;;;;;1.33;0.30;;;;;28.50;101808.00;;;;5047041;28;20278;-78
2022/08/05 11:31:31;;;;;;;0.93;0.40;;;;;28.50;101816.00;;;;5048051;28;20203;-78
2022/08/05 11:34:03;;;;;;;0.65;0.30;;;;;28.60;101812.00;;;;5047769;28;20203;-78
2022/08/05 11:36:49;;;;;;;0.40;0.20;;;;;28.50;101819.00;;;;5033749;28;20199;-78
2022/08/05 11:39:37;;;;;;;0.63;0.30;;;;;28.60;101823.00;;;;5065138;28;20645;-78
2022/08/05 11:42:05;;;;;;;0.75;0.13;;;;;28.60;101820.00;;;;5040058;28;20198;-78
2022/08/05 11:44:38;;;;;;;1.50;0.30;;;;;28.50;101825.00;;;;5030834;28;20227;-78
2022/08/05 11:47:06;;;;;;;0.82;0.35;;;;;28.50;101834.00;;;;5029163;28;20196;-78
2022/08/05 11:49:35;;;;;;;0.32;0.20;;;;;28.50;101843.00;;;;5047587;28;20231;-78
2022/08/05 11:52:03;;;;;;;0.30;0.20;;;;;28.50;101840.00;;;;5048257;28;20203;-78
2022/08/05 11:54:33;;;;;;;0.55;0.13;;;;;28.40;101847.00;;;;5048167;28;20203;-78
2022/08/05 11:57:01;;;;;;;2.72;0.10;;;;;28.30;101848.00;;;;5048139;28;20231;-78
2022/08/05 11:59:32;;;;;;;0.40;0.15;;;;;28.30;101853.00;;;;5046994;28;20203;-78
2022/08/05 12:02:01;;;;;;;0.57;0.30;;;;;28.20;101859.00;;;;5031304;28;20219;-79
2022/08/05 12:04:37;;;;;;;0.93;0.52;;;;;28.20;101856.00;;;;5046847;28;20203;-78
2022/08/05 12:07:07;;;;;;;2.28;0.20;;;;;28.20;101858.00;;;;5047009;28;20688;-79
2022/08/05 12:09:39;;;;;;;1.42;0.38;;;;;28.20;101860.00;;;;5046427;28;20587;-78
2022/08/05 12:12:07;;;;;;;1.13;0.30;;;;;28.30;101861.00;;;;5050300;28;20223;-77
2022/08/05 12:14:40;;;;;;;0.40;0.17;;;;;28.20;101862.00;;;;5050724;28;20257;-78
2022/08/05 12:17:08;;;;;;;0.65;0.40;;;;;28.20;101871.00;;;;5044316;28;20678;-77
2022/08/05 12:19:42;;;;;;;0.93;0.38;;;;;28.20;101870.00;;;;5048306;28;20207;-78
2022/08/05 12:22:11;;;;;;;0.55;0.10;;;;;28.40;101878.00;;;;5047996;28;20744;-78
2022/08/05 12:24:42;;;;;;;0.75;0.22;;;;;28.40;101869.00;;;;5047640;28;20665;-77
2022/08/05 12:27:09;;;;;;;1.13;0.20;;;;;28.50;101872.00;;;;5047466;28;20210;-78